Mount Airy, North Carolina
Current Conditions -  °F | °C
As of 3:15 PM on Thursday 29 Jan 2015 (Local Time) from KMWK Reporting Station
Scattered Clouds Scattered Clouds  
Wind Chill: 41°   Ceiling: Unl
Heat Index: 46°   Visibility: 10mi
Dew Point: 26°   Wind: 9mph
Humidity: 45%   Direction: 210°SSW
Pressure: 30.1"   Gusts: 16mph
Location:  36.5°N, 80.61°W
Report Text: KMWK 292015Z AUTO 21008G14KT 10SM SCT075 08/M04 A3010 RMK AO2 T00761036
Loading
Personal Weather Stations






























Interactive Weather Map New forecast layout! Learn more

10-Day Weather Forecast

Advertisements
Track Severe Weather on mobile